Time;durP1;ratioP1;P1;durP2;ratioP2;P2;SDS_P1;SDS_P2;PMS_P1;PMS_P2;Temp;Humidity;BMP_temperature;BMP_pressure;BME280_temperature;BME280_humidity;BME280_pressure;Samples;Min_cycle;Max_cycle;Signal;HPM_P1;HPM_P2
2023/08/10 00:01:51;;;;;;;5.28;0.65;;;17.70;99.90;;;;;;5031538;28;20449;-86
2023/08/10 00:04:17;;;;;;;2.75;0.70;;;17.70;99.90;;;;;;5030833;28;20053;-86
2023/08/10 00:06:42;;;;;;;2.97;0.60;;;17.60;99.90;;;;;;5031869;28;20025;-88
2023/08/10 00:09:08;;;;;;;1.38;0.52;;;17.60;99.90;;;;;;5032719;28;20029;-87
2023/08/10 00:11:34;;;;;;;4.00;0.90;;;17.60;99.90;;;;;;5033160;28;20025;-87
2023/08/10 00:14:00;;;;;;;4.90;1.33;;;17.50;99.90;;;;;;5033276;28;20064;-90
2023/08/10 00:16:26;;;;;;;3.40;0.98;;;17.50;99.90;;;;;;5032092;28;20048;-90
2023/08/10 00:18:51;;;;;;;6.15;0.90;;;17.40;99.90;;;;;;5033383;28;20061;-89
2023/08/10 00:21:17;;;;;;;1.77;0.60;;;17.40;99.90;;;;;;5033205;28;20037;-89
2023/08/10 00:23:43;;;;;;;1.85;0.90;;;17.40;99.90;;;;;;5033304;28;20076;-89
2023/08/10 00:26:08;;;;;;;1.80;0.82;;;17.40;99.90;;;;;;5033309;28;20026;-90
2023/08/10 00:28:34;;;;;;;2.55;1.10;;;17.30;99.90;;;;;;5032125;28;20026;-87
2023/08/10 00:31:00;;;;;;;8.23;0.93;;;17.30;99.90;;;;;;5031512;28;20032;-89
2023/08/10 00:33:25;;;;;;;5.38;0.80;;;17.30;99.90;;;;;;5033029;28;20029;-89
2023/08/10 00:35:51;;;;;;;2.75;1.25;;;17.30;99.90;;;;;;5032333;28;20413;-91
2023/08/10 00:38:17;;;;;;;2.35;1.20;;;17.30;99.90;;;;;;5032301;28;20059;-90
2023/08/10 00:40:43;;;;;;;4.43;0.80;;;17.30;99.90;;;;;;5032187;28;20057;-90
2023/08/10 00:43:08;;;;;;;3.35;1.20;;;17.30;99.90;;;;;;5033322;28;20543;-91
2023/08/10 00:45:34;;;;;;;5.45;0.77;;;17.30;99.90;;;;;;5033194;28;20076;-88
2023/08/10 00:48:00;;;;;;;4.18;0.60;;;17.30;99.90;;;;;;5033325;28;20389;-90
2023/08/10 00:50:26;;;;;;;2.65;0.80;;;17.30;99.90;;;;;;5035410;28;20025;-90
2023/08/10 00:52:52;;;;;;;2.28;1.15;;;17.30;99.90;;;;;;5037059;28;20029;-91
2023/08/10 00:55:18;;;;;;;6.55;0.80;;;17.30;99.90;;;;;;5037313;28;20038;-91
2023/08/10 00:57:44;;;;;;;2.22;0.95;;;17.30;99.90;;;;;;5036923;28;20029;-89
2023/08/10 01:00:10;;;;;;;4.18;1.20;;;17.30;99.90;;;;;;5036081;28;20036;-90
2023/08/10 01:02:39;;;;;;;5.07;0.55;;;17.30;99.90;;;;;;5037118;28;20026;-91
2023/08/10 01:05:14;;;;;;;1.58;0.60;;;17.20;99.90;;;;;;5036698;28;20033;-91
2023/08/10 01:08:15;;;;;;;4.45;0.93;;;17.20;99.90;;;;;;5035843;28;20021;-91
2023/08/10 01:11:00;;;;;;;3.33;1.20;;;17.20;99.90;;;;;;5033698;28;20040;-91
2023/08/10 01:13:38;;;;;;;11.85;1.17;;;17.30;99.90;;;;;;5035993;28;20118;-88
2023/08/10 01:16:08;;;;;;;4.68;0.98;;;17.30;99.90;;;;;;5035241;28;20501;-90
2023/08/10 01:18:35;;;;;;;4.45;1.80;;;17.20;99.90;;;;;;5036385;28;20032;-90
2023/08/10 01:21:10;;;;;;;4.80;0.90;;;17.20;99.90;;;;;;5036239;28;20508;-89
2023/08/10 01:23:40;;;;;;;4.95;0.80;;;17.20;99.90;;;;;;5036239;28;20071;-89
2023/08/10 01:26:08;;;;;;;3.75;0.82;;;17.20;99.90;;;;;;5035240;28;20029;-89
2023/08/10 01:28:34;;;;;;;2.13;1.00;;;17.20;99.90;;;;;;5036276;28;20100;-88
2023/08/10 01:31:01;;;;;;;4.78;1.13;;;17.20;99.90;;;;;;5035998;28;20021;-90
2023/08/10 01:33:27;;;;;;;5.72;0.98;;;17.20;99.90;;;;;;5040343;28;20029;-89
2023/08/10 01:35:53;;;;;;;2.30;0.80;;;17.20;99.90;;;;;;5036983;28;20558;-90
2023/08/10 01:38:19;;;;;;;4.10;0.90;;;17.20;99.90;;;;;;5036141;28;20104;-90
2023/08/10 01:40:47;;;;;;;6.55;1.17;;;17.20;99.90;;;;;;5035084;28;20056;-88
2023/08/10 01:43:13;;;;;;;3.45;0.98;;;17.30;99.90;;;;;;5035070;28;20022;-86
2023/08/10 01:45:43;;;;;;;19.55;1.52;;;17.30;99.90;;;;;;5033882;28;20561;-87
2023/08/10 01:48:15;;;;;;;3.33;0.85;;;17.30;99.90;;;;;;5034906;28;20025;-87
2023/08/10 01:50:45;;;;;;;3.17;1.02;;;17.30;99.90;;;;;;5034019;28;20029;-86
2023/08/10 01:53:15;;;;;;;4.32;0.68;;;17.30;99.90;;;;;;5035319;28;20052;-87
2023/08/10 01:55:42;;;;;;;1.48;0.57;;;17.30;99.90;;;;;;5034947;28;20034;-87
2023/08/10 01:58:08;;;;;;;5.18;0.73;;;17.30;99.90;;;;;;5034113;28;20122;-87
2023/08/10 02:00:37;;;;;;;2.15;0.68;;;17.20;99.90;;;;;;5032788;28;20494;-89
2023/08/10 02:03:06;;;;;;;3.40;0.80;;;17.20;99.90;;;;;;5035874;28;20386;-88
2023/08/10 02:05:32;;;;;;;3.83;0.70;;;17.30;99.90;;;;;;5035159;28;20030;-88
2023/08/10 02:07:58;;;;;;;4.95;0.63;;;17.20;99.90;;;;;;5032432;28;20022;-86
2023/08/10 02:10:24;;;;;;;2.85;0.68;;;17.20;99.90;;;;;;5033142;28;20036;-85
2023/08/10 02:12:49;;;;;;;4.95;0.80;;;17.20;99.90;;;;;;5032880;28;20057;-85
2023/08/10 02:15:15;;;;;;;2.88;1.38;;;17.20;99.90;;;;;;5034778;28;20120;-89
2023/08/10 02:17:41;;;;;;;1.75;0.50;;;17.30;99.90;;;;;;5035234;28;20108;-87
2023/08/10 02:20:14;;;;;;;4.00;0.68;;;17.20;99.90;;;;;;5033984;28;20064;-88
2023/08/10 02:22:51;;;;;;;6.18;0.80;;;17.20;99.90;;;;;;5034066;28;20040;-89
2023/08/10 02:25:19;;;;;;;1.38;0.60;;;17.30;99.90;;;;;;5035715;28;20025;-89
2023/08/10 02:27:46;;;;;;;3.25;0.70;;;17.20;99.90;;;;;;5035079;28;20139;-89
2023/08/10 02:30:14;;;;;;;1.38;0.50;;;17.20;99.90;;;;;;5031544;28;20065;-87
2023/08/10 02:32:40;;;;;;;1.98;0.60;;;17.20;99.90;;;;;;5031499;28;20056;-86
2023/08/10 02:35:06;;;;;;;1.77;0.60;;;17.20;99.90;;;;;;5031549;28;20095;-85
2023/08/10 02:37:32;;;;;;;1.05;0.68;;;17.30;99.90;;;;;;5032758;28;20045;-87
2023/08/10 02:39:58;;;;;;;1.20;0.50;;;17.30;99.90;;;;;;5033576;28;20029;-89
2023/08/10 02:42:24;;;;;;;1.20;0.52;;;17.30;99.90;;;;;;5033921;28;20025;-86
2023/08/10 02:44:51;;;;;;;1.63;0.88;;;17.30;99.90;;;;;;5030869;28;20080;-87
2023/08/10 02:47:17;;;;;;;1.63;0.60;;;17.30;99.90;;;;;;5031757;28;20021;-86
2023/08/10 02:49:43;;;;;;;1.55;0.70;;;17.30;99.90;;;;;;5034115;28;20048;-90
2023/08/10 02:52:09;;;;;;;1.40;0.50;;;17.30;99.90;;;;;;5033435;28;20075;-84
2023/08/10 02:54:35;;;;;;;2.42;0.47;;;17.30;99.90;;;;;;5031593;28;20501;-87
2023/08/10 02:57:01;;;;;;;1.33;0.50;;;17.30;99.90;;;;;;5032249;28;20028;-87
2023/08/10 02:59:27;;;;;;;0.75;0.40;;;17.30;99.90;;;;;;5033526;28;20059;-90
2023/08/10 03:01:52;;;;;;;1.02;0.60;;;17.40;99.90;;;;;;5034606;28;20030;-89
2023/08/10 03:04:18;;;;;;;1.90;0.80;;;17.30;99.90;;;;;;5034441;28;20029;-90
2023/08/10 03:06:44;;;;;;;4.35;0.57;;;17.30;99.90;;;;;;5036620;28;20402;-88
2023/08/10 03:09:10;;;;;;;1.48;0.52;;;17.20;99.90;;;;;;5034823;28;20025;-87
2023/08/10 03:11:36;;;;;;;3.03;0.60;;;17.20;99.90;;;;;;5033231;28;20128;-87
2023/08/10 03:14:02;;;;;;;1.35;0.55;;;17.20;99.90;;;;;;5032907;28;20061;-86
2023/08/10 03:16:29;;;;;;;3.38;0.68;;;17.20;99.90;;;;;;5032450;28;20508;-86
2023/08/10 03:18:55;;;;;;;4.32;0.60;;;17.10;99.90;;;;;;5031944;28;20112;-86
2023/08/10 03:21:21;;;;;;;8.20;0.90;;;17.10;99.90;;;;;;5033493;28;20703;-88
2023/08/10 03:23:46;;;;;;;5.88;0.90;;;17.00;99.90;;;;;;5033826;28;20022;-88
2023/08/10 03:26:12;;;;;;;8.05;1.17;;;17.00;99.90;;;;;;5032686;28;20029;-90
2023/08/10 03:28:38;;;;;;;2.15;0.80;;;16.90;99.90;;;;;;5033941;28;20048;-89
2023/08/10 03:31:03;;;;;;;1.65;0.70;;;16.90;99.90;;;;;;5032817;28;20021;-88
2023/08/10 03:33:29;;;;;;;2.25;0.82;;;16.90;99.90;;;;;;5034095;28;20033;-88
2023/08/10 03:35:55;;;;;;;1.75;0.65;;;16.90;99.90;;;;;;5033863;28;20063;-89
2023/08/10 03:38:20;;;;;;;5.10;0.98;;;16.90;99.90;;;;;;5033614;28;20402;-88
2023/08/10 03:40:46;;;;;;;3.03;0.70;;;16.90;99.90;;;;;;5032289;28;20029;-88
2023/08/10 03:43:12;;;;;;;2.05;0.80;;;16.80;99.90;;;;;;5033019;28;20033;-88
2023/08/10 03:45:38;;;;;;;3.22;0.60;;;16.80;99.90;;;;;;5032515;28;20076;-88
2023/08/10 03:48:04;;;;;;;1.98;0.70;;;16.80;99.90;;;;;;5032435;28;20021;-89
2023/08/10 03:50:30;;;;;;;1.85;0.75;;;16.80;99.90;;;;;;5033528;28;20033;-89
2023/08/10 03:52:55;;;;;;;2.45;0.90;;;16.80;99.90;;;;;;5032436;28;20167;-89
2023/08/10 03:55:21;;;;;;;3.17;1.35;;;16.80;99.90;;;;;;5032212;28;20040;-89
2023/08/10 03:57:47;;;;;;;6.45;0.75;;;16.80;99.90;;;;;;5033034;28;20022;-89
2023/08/10 04:00:14;;;;;;;1.42;0.65;;;16.80;99.90;;;;;;5032088;28;20127;-90
2023/08/10 04:02:40;;;;;;;2.63;0.80;;;16.80;99.90;;;;;;5033493;28;20102;-89
2023/08/10 04:05:06;;;;;;;1.67;1.17;;;16.80;99.90;;;;;;5032713;28;20405;-88
2023/08/10 04:07:37;;;;;;;1.88;0.70;;;16.80;99.90;;;;;;5033211;28;20029;-90
2023/08/10 04:10:05;;;;;;;3.83;0.60;;;16.80;99.90;;;;;;5033511;28;20029;-90
2023/08/10 04:12:32;;;;;;;2.38;1.13;;;16.80;99.90;;;;;;5032366;28;20129;-90
2023/08/10 04:14:58;;;;;;;6.93;0.95;;;16.80;99.90;;;;;;5033645;28;20033;-91
2023/08/10 04:17:24;;;;;;;1.80;0.82;;;16.80;99.90;;;;;;5031943;28;20021;-89
2023/08/10 04:19:49;;;;;;;2.47;0.80;;;16.70;99.90;;;;;;5031496;28;20026;-89
2023/08/10 04:22:15;;;;;;;3.40;1.13;;;16.70;99.90;;;;;;5032054;28;20108;-88
2023/08/10 04:24:41;;;;;;;3.42;0.70;;;16.60;99.90;;;;;;5031886;28;20041;-87
2023/08/10 04:27:07;;;;;;;6.18;0.88;;;16.50;99.90;;;;;;5031121;28;20033;-88
2023/08/10 04:29:33;;;;;;;3.38;1.70;;;16.50;99.90;;;;;;5032181;28;20025;-87
2023/08/10 04:31:58;;;;;;;2.08;0.82;;;16.50;99.90;;;;;;5031033;28;20108;-88
2023/08/10 04:34:24;;;;;;;4.80;0.80;;;16.50;99.90;;;;;;5031272;28;20588;-89
2023/08/10 04:36:50;;;;;;;2.83;0.60;;;16.40;99.90;;;;;;5032543;28;20025;-88
2023/08/10 04:39:16;;;;;;;2.88;0.77;;;16.40;99.90;;;;;;5033009;28;20021;-88
2023/08/10 04:41:42;;;;;;;3.78;0.80;;;16.50;99.90;;;;;;5032068;28;20429;-88
2023/08/10 04:44:08;;;;;;;2.90;0.80;;;16.50;99.90;;;;;;5032449;28;20036;-87
2023/08/10 04:46:34;;;;;;;8.50;0.65;;;16.60;99.90;;;;;;5031266;28;20655;-88
2023/08/10 04:49:00;;;;;;;3.33;0.73;;;16.70;99.90;;;;;;5030811;28;20053;-88
2023/08/10 04:51:25;;;;;;;1.40;0.80;;;16.80;99.90;;;;;;5031097;28;20035;-88
2023/08/10 04:53:51;;;;;;;3.75;0.90;;;17.00;99.90;;;;;;5031622;28;20033;-87
2023/08/10 04:56:17;;;;;;;4.80;1.08;;;17.00;99.90;;;;;;5045302;28;20041;-88
2023/08/10 04:58:43;;;;;;;4.70;0.90;;;17.20;99.90;;;;;;5050259;28;20132;-88
2023/08/10 05:01:09;;;;;;;2.90;1.05;;;17.20;99.90;;;;;;5044931;28;20032;-86
2023/08/10 05:03:35;;;;;;;6.88;0.80;;;17.30;99.90;;;;;;5052558;28;20028;-87
2023/08/10 05:06:02;;;;;;;2.65;1.00;;;17.40;99.90;;;;;;5051934;28;20029;-87
2023/08/10 05:08:28;;;;;;;2.72;0.85;;;17.50;99.90;;;;;;5050916;28;20028;-86
2023/08/10 05:10:53;;;;;;;2.28;0.80;;;17.60;99.90;;;;;;5050677;28;20029;-87
2023/08/10 05:13:19;;;;;;;2.13;0.70;;;17.70;99.90;;;;;;5047043;28;20044;-85
2023/08/10 05:15:45;;;;;;;3.08;0.95;;;17.70;99.90;;;;;;5031153;28;20042;-87
2023/08/10 05:18:10;;;;;;;4.00;0.77;;;17.80;99.90;;;;;;5040543;28;20024;-87
2023/08/10 05:20:37;;;;;;;1.98;1.00;;;17.90;99.90;;;;;;5031639;28;20129;-87
2023/08/10 05:23:03;;;;;;;1.55;0.70;;;18.00;99.90;;;;;;5032168;28;20075;-87
2023/08/10 05:25:29;;;;;;;1.58;0.68;;;18.20;99.90;;;;;;5030327;28;20026;-87
2023/08/10 05:27:54;;;;;;;1.00;0.60;;;18.50;99.90;;;;;;5031222;28;20025;-86
2023/08/10 05:30:20;;;;;;;1.77;0.70;;;18.80;99.90;;;;;;5032105;28;20497;-86
2023/08/10 05:32:46;;;;;;;2.33;0.80;;;19.10;99.90;;;;;;5031749;28;20025;-86
2023/08/10 05:35:13;;;;;;;4.97;0.98;;;19.40;99.90;;;;;;5031628;28;20502;-86
2023/08/10 05:37:39;;;;;;;6.00;1.08;;;19.60;99.90;;;;;;5033818;28;20505;-85
2023/08/10 05:40:11;;;;;;;2.22;0.82;;;19.70;99.90;;;;;;5034142;28;20065;-85
2023/08/10 05:42:38;;;;;;;1.67;0.73;;;20.20;99.90;;;;;;5034010;28;20029;-85
2023/08/10 05:45:06;;;;;;;2.55;0.60;;;20.50;99.90;;;;;;5035177;28;20029;-85
2023/08/10 05:47:35;;;;;;;2.22;0.70;;;20.70;99.90;;;;;;5035273;28;20022;-86
2023/08/10 05:50:02;;;;;;;8.82;0.85;;;20.70;99.90;;;;;;5034106;28;20065;-85
2023/08/10 05:52:29;;;;;;;2.13;0.70;;;20.80;99.90;;;;;;5032287;28;20128;-85
2023/08/10 05:54:55;;;;;;;3.15;0.68;;;20.90;99.90;;;;;;5034919;28;20084;-85
2023/08/10 05:57:21;;;;;;;2.65;0.90;;;21.00;99.90;;;;;;5033693;28;20128;-84
2023/08/10 05:59:47;;;;;;;5.72;0.95;;;21.20;99.50;;;;;;5034930;28;20037;-84
2023/08/10 06:02:12;;;;;;;2.80;0.85;;;21.50;98.30;;;;;;5039388;28;20040;-84
2023/08/10 06:04:41;;;;;;;2.55;0.90;;;21.80;97.10;;;;;;5053891;28;20028;-85
2023/08/10 06:07:07;;;;;;;1.95;0.65;;;21.90;94.70;;;;;;5053855;28;20028;-85
2023/08/10 06:09:33;;;;;;;1.95;0.70;;;22.30;94.70;;;;;;5052489;28;20032;-85
2023/08/10 06:12:00;;;;;;;2.55;1.13;;;23.00;93.10;;;;;;5054122;28;20607;-84
2023/08/10 06:14:26;;;;;;;2.22;0.68;;;23.60;90.20;;;;;;5056329;28;20041;-85
2023/08/10 06:16:52;;;;;;;7.13;0.75;;;24.20;84.60;;;;;;5053350;28;20043;-85
2023/08/10 06:19:18;;;;;;;1.35;0.88;;;24.60;82.20;;;;;;5053951;28;20033;-85
2023/08/10 06:21:43;;;;;;;2.92;0.80;;;25.20;78.40;;;;;;5052844;28;20437;-85
2023/08/10 06:24:09;;;;;;;1.00;0.70;;;26.10;72.90;;;;;;5052323;28;20037;-84
2023/08/10 06:26:36;;;;;;;1.10;0.60;;;27.20;66.60;;;;;;5054166;28;20028;-85
2023/08/10 06:29:03;;;;;;;1.48;0.82;;;28.10;61.50;;;;;;5053923;28;20508;-86
2023/08/10 06:31:29;;;;;;;1.58;0.82;;;29.00;55.40;;;;;;5053686;28;20048;-84
2023/08/10 06:33:54;;;;;;;1.05;0.60;;;29.50;51.70;;;;;;5052351;28;20124;-86
2023/08/10 06:36:21;;;;;;;1.55;0.60;;;29.70;49.00;;;;;;5053585;28;20108;-86
2023/08/10 06:38:47;;;;;;;5.20;0.73;;;30.20;47.70;;;;;;5053611;28;20048;-86
2023/08/10 06:41:12;;;;;;;1.85;0.77;;;30.60;46.70;;;;;;5053497;28;20061;-85
2023/08/10 06:43:38;;;;;;;1.70;0.60;;;30.90;45.30;;;;;;5053506;28;20550;-86
2023/08/10 06:46:04;;;;;;;2.85;0.80;;;31.00;45.00;;;;;;5053677;28;20524;-85
2023/08/10 06:48:30;;;;;;;2.03;0.70;;;31.50;41.70;;;;;;5052948;28;20032;-86
2023/08/10 06:50:56;;;;;;;1.48;0.70;;;31.70;42.30;;;;;;5053329;28;20512;-87
2023/08/10 06:53:21;;;;;;;1.35;0.65;;;31.70;42.00;;;;;;5052111;28;20029;-86
2023/08/10 06:55:50;;;;;;;3.90;0.82;;;31.90;41.20;;;;;;5052820;28;20040;-86
2023/08/10 06:58:16;;;;;;;1.42;0.80;;;31.80;41.20;;;;;;5053464;28;20025;-86
2023/08/10 07:00:42;;;;;;;1.13;0.60;;;32.10;40.20;;;;;;5053370;28;20028;-86
2023/08/10 07:03:07;;;;;;;4.38;0.80;;;31.90;41.10;;;;;;5053272;28;20017;-85
2023/08/10 07:05:42;;;;;;;0.90;0.55;;;31.80;39.60;;;;;;5053021;28;20024;-86
2023/08/10 07:08:08;;;;;;;0.85;0.70;;;32.00;38.50;;;;;;5052893;28;20390;-86
2023/08/10 07:10:35;;;;;;;1.40;0.57;;;31.90;39.00;;;;;;5051163;28;20041;-85
2023/08/10 07:13:01;;;;;;;1.88;0.65;;;32.20;39.50;;;;;;5052121;28;20051;-86
2023/08/10 07:15:27;;;;;;;1.13;0.82;;;31.60;38.80;;;;;;5051203;28;20033;-87
2023/08/10 07:17:52;;;;;;;1.10;0.68;;;31.80;40.80;;;;;;5052611;28;20048;-86
2023/08/10 07:20:21;;;;;;;1.55;0.75;;;32.10;39.50;;;;;;5051399;28;20025;-86
2023/08/10 07:22:47;;;;;;;1.23;0.60;;;32.10;39.50;;;;;;5051221;28;20072;-85
2023/08/10 07:25:13;;;;;;;0.93;0.50;;;32.00;39.30;;;;;;5050549;28;20032;-87
2023/08/10 07:27:39;;;;;;;1.08;0.77;;;32.10;37.00;;;;;;5051416;28;20044;-85
2023/08/10 07:30:05;;;;;;;1.10;0.60;;;32.20;36.80;;;;;;5049967;28;20489;-86
2023/08/10 07:32:31;;;;;;;0.80;0.47;;;32.10;36.90;;;;;;5051247;28;20025;-85
2023/08/10 07:34:57;;;;;;;1.65;0.73;;;31.70;35.70;;;;;;5050311;28;20033;-84
2023/08/10 07:37:23;;;;;;;0.80;0.40;;;31.70;37.40;;;;;;5050970;28;20033;-85
2023/08/10 07:39:49;;;;;;;0.90;0.70;;;31.80;37.60;;;;;;5050874;28;20091;-83
2023/08/10 07:42:14;;;;;;;0.75;0.55;;;32.10;38.60;;;;;;5050695;28;20025;-85
2023/08/10 07:44:40;;;;;;;1.25;0.60;;;32.10;37.80;;;;;;5052031;28;20033;-84
2023/08/10 07:47:05;;;;;;;1.00;0.60;;;32.10;38.10;;;;;;5054805;28;20078;-84
2023/08/10 07:49:32;;;;;;;6.80;0.60;;;32.00;37.30;;;;;;5055483;28;20405;-85
2023/08/10 07:51:58;;;;;;;9.70;0.60;;;31.80;36.30;;;;;;5052491;28;20029;-85
2023/08/10 07:54:25;;;;;;;3.20;1.00;;;31.40;36.80;;;;;;5050787;28;20041;-84
2023/08/10 07:56:51;;;;;;;6.10;0.90;;;31.20;38.50;;;;;;5051208;28;20029;-86
2023/08/10 07:59:16;;;;;;;2.28;0.68;;;30.90;38.20;;;;;;5049255;28;20410;-85
2023/08/10 08:01:43;;;;;;;2.35;0.80;;;30.60;39.50;;;;;;5051337;28;20032;-85
2023/08/10 08:04:08;;;;;;;2.53;0.50;;;30.30;40.80;;;;;;5051572;28;20049;-83
2023/08/10 08:06:35;;;;;;;1.27;0.60;;;30.10;40.80;;;;;;5051689;28;20531;-84
2023/08/10 08:09:03;;;;;;;1.73;0.60;;;29.80;42.60;;;;;;5051498;28;20529;-85
2023/08/10 08:11:28;;;;;;;2.70;0.60;;;29.80;42.40;;;;;;5049279;28;20047;-84
2023/08/10 08:13:54;;;;;;;2.53;0.70;;;29.90;43.20;;;;;;5050798;28;20048;-83
2023/08/10 08:16:20;;;;;;;4.50;0.60;;;30.40;42.70;;;;;;5048803;28;20080;-84
2023/08/10 08:18:49;;;;;;;1.15;0.60;;;30.90;41.50;;;;;;5050127;28;20512;-84
2023/08/10 08:21:18;;;;;;;0.77;0.50;;;31.80;40.20;;;;;;5049438;28;20485;-84
2023/08/10 08:23:44;;;;;;;1.00;0.55;;;32.40;38.60;;;;;;5050099;28;20081;-84
2023/08/10 08:26:11;;;;;;;1.05;0.40;;;32.40;38.00;;;;;;5048824;28;20033;-83
2023/08/10 08:28:37;;;;;;;0.75;0.50;;;32.60;37.30;;;;;;5051107;28;20500;-84
2023/08/10 08:31:03;;;;;;;1.10;0.43;;;33.00;37.80;;;;;;5050207;28;20111;-84
2023/08/10 08:33:29;;;;;;;1.92;0.50;;;33.30;35.20;;;;;;5051087;28;20021;-84
2023/08/10 08:35:55;;;;;;;2.15;0.60;;;33.50;35.90;;;;;;5050753;28;20037;-84
2023/08/10 08:38:21;;;;;;;0.70;0.52;;;33.60;34.50;;;;;;5051678;28;20087;-84
2023/08/10 08:40:50;;;;;;;1.05;0.50;;;33.30;34.60;;;;;;5050702;28;20108;-85
2023/08/10 08:43:17;;;;;;;2.50;0.73;;;33.10;34.50;;;;;;5049985;28;20026;-85
2023/08/10 08:45:44;;;;;;;1.63;0.60;;;32.10;36.30;;;;;;5049652;28;20041;-84
2023/08/10 08:48:14;;;;;;;1.17;0.70;;;32.20;37.10;;;;;;5049812;28;20028;-84
2023/08/10 08:50:40;;;;;;;2.42;0.63;;;32.40;36.20;;;;;;5049831;28;20036;-85
2023/08/10 08:53:11;;;;;;;1.60;0.63;;;33.00;35.90;;;;;;5049679;28;20029;-86
2023/08/10 08:55:38;;;;;;;1.67;0.65;;;33.10;36.30;;;;;;5049859;28;20072;-85
2023/08/10 08:58:04;;;;;;;2.13;0.70;;;33.10;34.40;;;;;;5050350;28;20025;-84
2023/08/10 09:00:33;;;;;;;1.52;0.60;;;33.20;33.90;;;;;;5048686;28;20040;-84
2023/08/10 09:03:00;;;;;;;3.55;0.55;;;33.60;34.20;;;;;;5048544;28;20024;-85
2023/08/10 09:05:26;;;;;;;0.80;0.50;;;33.80;34.20;;;;;;5048993;28;20025;-84
2023/08/10 09:07:52;;;;;;;0.90;0.60;;;34.10;32.60;;;;;;5049130;28;20055;-86
2023/08/10 09:10:20;;;;;;;2.95;0.40;;;34.00;32.50;;;;;;5051061;28;20056;-87
2023/08/10 09:12:46;;;;;;;1.88;0.70;;;34.10;31.40;;;;;;5053414;28;20446;-86
2023/08/10 09:15:19;;;;;;;0.80;0.60;;;34.40;28.20;;;;;;5053667;28;20041;-87
2023/08/10 09:17:53;;;;;;;1.33;0.60;;;34.30;28.30;;;;;;5052828;28;20087;-87
2023/08/10 09:20:25;;;;;;;0.98;0.70;;;34.40;28.10;;;;;;5060130;28;20029;-87
2023/08/10 09:22:53;;;;;;;1.77;0.60;;;34.70;28.10;;;;;;5055146;28;20036;-85
2023/08/10 09:25:19;;;;;;;1.35;0.90;;;34.70;28.10;;;;;;5053312;28;20017;-86
2023/08/10 09:27:47;;;;;;;1.45;0.50;;;34.40;27.00;;;;;;5052689;28;20037;-86
2023/08/10 09:30:13;;;;;;;1.17;0.60;;;33.80;26.80;;;;;;5053804;28;20029;-85
2023/08/10 09:32:40;;;;;;;1.25;0.52;;;32.80;27.50;;;;;;5052696;28;20071;-85
2023/08/10 09:35:11;;;;;;;1.23;0.65;;;32.40;28.00;;;;;;5051635;28;20056;-86
2023/08/10 09:37:37;;;;;;;1.27;0.70;;;32.10;29.80;;;;;;5052979;28;20107;-86
2023/08/10 09:40:06;;;;;;;0.95;0.50;;;31.90;30.10;;;;;;5051528;28;20116;-87
2023/08/10 09:42:32;;;;;;;0.98;0.50;;;31.70;31.30;;;;;;5053233;28;20021;-85
2023/08/10 09:45:04;;;;;;;1.10;0.68;;;31.70;32.60;;;;;;5053348;28;20028;-84
2023/08/10 09:47:35;;;;;;;2.15;0.63;;;31.70;32.60;;;;;;5053868;28;20025;-86
2023/08/10 09:50:03;;;;;;;0.90;0.60;;;31.90;30.90;;;;;;5053716;28;20032;-84
2023/08/10 09:52:29;;;;;;;3.47;0.55;;;32.30;30.80;;;;;;5053039;28;20066;-84
2023/08/10 09:54:56;;;;;;;2.05;0.80;;;32.70;30.00;;;;;;5051507;28;20033;-82
2023/08/10 09:57:27;;;;;;;1.58;0.70;;;33.00;29.90;;;;;;5052654;28;20394;-83
2023/08/10 09:59:54;;;;;;;2.63;0.80;;;33.50;27.60;;;;;;5052649;28;20044;-84
2023/08/10 10:02:20;;;;;;;0.80;0.50;;;33.80;28.20;;;;;;5051621;28;20040;-86
2023/08/10 10:04:47;;;;;;;1.00;0.63;;;33.70;27.90;;;;;;5052767;28;20035;-86
2023/08/10 10:07:14;;;;;;;4.10;0.60;;;33.70;29.00;;;;;;5055311;28;20021;-86
2023/08/10 10:09:43;;;;;;;0.80;0.50;;;33.70;27.20;;;;;;5053380;28;20064;-86
2023/08/10 10:12:13;;;;;;;1.17;0.50;;;33.50;26.80;;;;;;5054171;28;20041;-84
2023/08/10 10:14:40;;;;;;;0.73;0.50;;;33.10;28.50;;;;;;5053186;28;20064;-85
2023/08/10 10:17:08;;;;;;;1.20;0.57;;;32.60;29.70;;;;;;5050986;28;20022;-85
2023/08/10 10:19:34;;;;;;;1.10;0.50;;;32.10;29.80;;;;;;5051406;28;20389;-83
2023/08/10 10:22:00;;;;;;;1.27;0.60;;;31.60;31.50;;;;;;5051490;28;20029;-83
2023/08/10 10:24:33;;;;;;;2.67;0.60;;;31.20;32.80;;;;;;5051576;28;20060;-83
2023/08/10 10:27:11;;;;;;;1.20;0.52;;;30.60;33.70;;;;;;5050898;28;20025;-84
2023/08/10 10:29:41;;;;;;;0.60;0.50;;;30.20;33.10;;;;;;5051110;28;20121;-84
2023/08/10 10:32:18;;;;;;;0.88;0.38;;;29.90;33.20;;;;;;5050846;28;20036;-86
2023/08/10 10:34:45;;;;;;;2.47;0.55;;;29.60;34.10;;;;;;5050568;28;20107;-85
2023/08/10 10:37:20;;;;;;;1.25;0.60;;;29.50;33.90;;;;;;5052073;28;20033;-85
2023/08/10 10:39:49;;;;;;;0.95;0.50;;;29.20;33.20;;;;;;5051522;28;20095;-86
2023/08/10 10:42:17;;;;;;;3.42;0.68;;;28.90;35.20;;;;;;5051655;28;20108;-86
2023/08/10 10:45:14;;;;;;;0.93;0.60;;;28.70;38.00;;;;;;5050651;28;20033;-83
2023/08/10 10:47:50;;;;;;;0.93;0.70;;;28.40;38.60;;;;;;5050770;28;20032;-84
2023/08/10 10:50:16;;;;;;;;;;;28.30;38.30;;;;;;5052149;28;20021;-86
2023/08/10 10:52:59;;;;;;;2.17;0.60;;;28.10;36.60;;;;;;5053424;28;19909;-84
2023/08/10 10:55:29;;;;;;;0.90;0.50;;;27.90;36.30;;;;;;5051224;28;20037;-85
2023/08/10 10:57:55;;;;;;;1.08;0.57;;;27.70;34.50;;;;;;5051328;28;20385;-84
2023/08/10 11:00:23;;;;;;;1.83;0.70;;;27.60;33.90;;;;;;5052578;28;20063;-83
2023/08/10 11:02:51;;;;;;;1.33;0.70;;;27.30;36.70;;;;;;5051331;28;20096;-81
2023/08/10 11:05:18;;;;;;;0.88;0.50;;;27.20;39.20;;;;;;5051332;28;20537;-82
2023/08/10 11:07:49;;;;;;;5.38;0.60;;;27.00;39.00;;;;;;5049989;28;20025;-83
2023/08/10 11:10:16;;;;;;;0.98;0.60;;;26.90;38.20;;;;;;5051311;28;20037;-82
2023/08/10 11:12:43;;;;;;;2.28;0.90;;;26.90;39.30;;;;;;5050030;28;20079;-83
2023/08/10 11:15:11;;;;;;;1.75;0.50;;;26.80;40.50;;;;;;5052004;28;20041;-85
2023/08/10 11:17:41;;;;;;;2.25;0.80;;;26.80;40.90;;;;;;5050866;28;20092;-86
2023/08/10 11:20:14;;;;;;;2.00;0.60;;;26.80;41.50;;;;;;5049939;28;20041;-82
2023/08/10 11:22:42;;;;;;;2.03;0.70;;;26.70;39.90;;;;;;5051342;28;20078;-81
2023/08/10 11:25:18;;;;;;;3.45;0.60;;;26.60;39.50;;;;;;5051876;28;20040;-84
2023/08/10 11:27:47;;;;;;;2.45;1.15;;;26.50;39.20;;;;;;5051464;28;20032;-82
2023/08/10 11:30:23;;;;;;;1.48;0.70;;;26.60;39.90;;;;;;5049585;28;20071;-83
2023/08/10 11:32:54;;;;;;;3.42;0.50;;;26.60;41.90;;;;;;5050525;28;20048;-84
2023/08/10 11:35:24;;;;;;;3.42;0.70;;;26.60;41.60;;;;;;5050259;28;20520;-84
2023/08/10 11:37:50;;;;;;;3.65;0.80;;;26.60;41.40;;;;;;5050617;28;20164;-86
2023/08/10 11:40:21;;;;;;;1.20;0.80;;;26.50;43.00;;;;;;5050433;28;20036;-84
2023/08/10 11:42:49;;;;;;;0.98;0.60;;;26.50;41.80;;;;;;5050413;28;20277;-84
2023/08/10 11:45:21;;;;;;;1.30;0.70;;;26.60;40.00;;;;;;5049781;28;20031;-84
2023/08/10 11:47:56;;;;;;;1.42;0.50;;;26.60;41.30;;;;;;5051390;28;20033;-85
2023/08/10 11:50:22;;;;;;;1.95;0.50;;;26.70;42.90;;;;;;5050068;28;20438;-82
2023/08/10 11:52:49;;;;;;;1.45;0.50;;;26.70;42.00;;;;;;5050759;28;20063;-86
2023/08/10 11:55:16;;;;;;;1.13;0.82;;;26.70;41.70;;;;;;5050175;28;20518;-85
2023/08/10 11:57:51;;;;;;;1.30;0.60;;;26.80;40.40;;;;;;5049939;28;20525;-86
2023/08/10 12:00:33;;;;;;;1.42;0.80;;;26.70;42.20;;;;;;5050552;28;20029;-83
2023/08/10 12:03:11;;;;;;;2.15;0.60;;;26.70;40.70;;;;;;5050759;28;20029;-85
2023/08/10 12:05:37;;;;;;;1.27;0.60;;;26.70;41.20;;;;;;5050824;28;20032;-82
2023/08/10 12:08:08;;;;;;;1.73;0.65;;;26.70;41.10;;;;;;5049056;28;20029;-83
2023/08/10 12:10:39;;;;;;;1.45;0.73;;;26.70;41.20;;;;;;5051646;28;20111;-86
2023/08/10 12:13:06;;;;;;;1.45;0.70;;;26.70;40.30;;;;;;5052038;28;20052;-85
2023/08/10 12:15:32;;;;;;;1.73;0.60;;;26.60;40.20;;;;;;5050738;28;20033;-86
2023/08/10 12:18:00;;;;;;;1.55;0.60;;;26.60;40.60;;;;;;5049640;28;20502;-82
2023/08/10 12:20:26;;;;;;;1.00;0.57;;;26.70;41.50;;;;;;5048928;28;20398;-84
2023/08/10 12:22:53;;;;;;;0.93;0.52;;;26.70;39.70;;;;;;5049031;28;20036;-82
2023/08/10 12:25:22;;;;;;;1.25;0.60;;;26.70;39.80;;;;;;5050182;28;20059;-83
2023/08/10 12:27:47;;;;;;;1.50;0.70;;;26.60;40.10;;;;;;5053021;28;20072;-83
2023/08/10 12:30:14;;;;;;;1.05;0.65;;;26.50;40.40;;;;;;5050097;28;20041;-83
2023/08/10 12:32:40;;;;;;;0.70;0.43;;;26.50;39.00;;;;;;5049347;28;20029;-85
2023/08/10 12:35:06;;;;;;;1.83;0.50;;;26.50;38.60;;;;;;5049958;28;20056;-85
2023/08/10 12:37:31;;;;;;;1.23;0.60;;;26.50;40.00;;;;;;5050053;28;20033;-86
2023/08/10 12:39:57;;;;;;;0.80;0.50;;;26.50;39.80;;;;;;5048293;28;20033;-84
2023/08/10 12:42:24;;;;;;;1.17;0.63;;;26.40;39.50;;;;;;5048149;28;20557;-84
2023/08/10 12:44:51;;;;;;;1.10;0.60;;;26.40;39.10;;;;;;5040387;28;20485;-85
2023/08/10 12:47:17;;;;;;;1.35;0.70;;;26.50;39.20;;;;;;5055021;28;20025;-86
2023/08/10 12:49:43;;;;;;;7.97;0.90;;;26.50;36.60;;;;;;5053345;28;20048;-83